Airfield :
LOGIN :

Register | Disclaimer

   EN    FR    IT 

 










Legend :    VFR   Marginal VFR   IFR   Intensive IFR   Very Intensive IFR
Visi :
Ceiling :
>= 8 km
>= 3000ft
5 to 8 km
1000 to 3000 ft
1500m to 5 km
500 to 1000 ft
800 to 1500m
200 to 500 ft
< 800m
< 200 ft
Symbols :   Thunderstorms  Fog  Heavy snow  Heavy precipitations  Wind > 20 kt
SIGMETs :     Misc.  Thunderstorms  Icing  Turbulence  Mountain Waves  Volcanic Ashes






- Airport Elevation : 2945 ft
- IATA code : RGS


LEBG - Burgos

CURRENT METAR :
  • 210300Z AUTO 00000KT 9999 SCT010 02/02 Q1017

EXPIRED METARs :
  • 210230Z AUTO 12002KT 9999 NCD 03/02 Q1017
  • 210200Z AUTO VRB02KT 9999 SCT018 04/03 Q1016
  • 210130Z AUTO VRB02KT 9999 FEW015 BKN020 04/04 Q1016
  • 210100Z AUTO VRB02KT 9999 BKN019 04/04 Q1016
  • 210030Z AUTO VRB02KT 9999 OVC018 04/04 Q1016

TAF TAF LEBG
Valid from the 21 at 03:00 until the 21 at 12:00 UTC


210200Z 2103/2112 VRB03KT 9999 SCT018
PROB40
TEMPO 2103/2110 1200 BCFG BKN006
TEMPO 2103/2110 0200 FG OVC001



MET'MAP, your aeronautical weather chart ! - Copyright ORBIFLY December 2007 - Disclaimer

ORBIFLY MET'MAP TEAM :

Programming & Development : Alexandra Zaïnal
Concept & Development : Baudouin d'Aumeries
Co-Development & Prog : Marc-Olivier Méhu
Technical & hardware support : Manuel Goepfert

Contact : metmap@orbifly.com




SOURCES & CREDITS :

   NOAA